Terminal Aerodrome Forecast
Issued by NWS Charleston, WV

Current Version | Previous Version | Text Only | Print | Product List | Glossary Off
Versions: 1 2 3 4 5 6 7 8 9 10 11 12 13 14 15 16 17 18 19 20 21 22 23

000
FTUS41 KRLX 252325
TAFCRW
TAF
KCRW 252325Z 2600/2624 00000KT P6SM SCT080
     FM260700 00000KT 3SM BR SKC
     FM260800 00000KT 1 1/2SM BR SCT001
     FM260900 00000KT 1/4SM FG VV001
     FM261300 00000KT 2SM BR BKN002
     FM261400 00000KT P6SM SKC
     FM261600 VRB03KT P6SM SCT035
     FM261900 20004KT P6SM SKC=

USA.gov is the U.S. government's official web portal to all federal, state and local government web resources and services.